createdAt,value
2023-05-14T00:02:13.409Z,6.90
2023-05-14T00:05:14.938Z,7.28
2023-05-14T00:08:17.037Z,7.53
2023-05-14T00:11:18.444Z,7.50
2023-05-14T00:14:19.883Z,7.20
2023-05-14T00:17:21.807Z,6.80
2023-05-14T00:20:23.737Z,7.50
2023-05-14T00:23:26.005Z,7.60
2023-05-14T00:26:27.326Z,7.05
2023-05-14T00:29:30.185Z,7.82
2023-05-14T00:32:31.649Z,7.53
2023-05-14T00:35:34.538Z,7.50
2023-05-14T00:38:36.510Z,8.02
2023-05-14T00:41:38.002Z,7.65
2023-05-14T00:44:39.343Z,7.65
2023-05-14T00:47:40.849Z,7.80
2023-05-14T00:50:42.609Z,7.28
2023-05-14T00:53:45.271Z,7.25
2023-05-14T00:56:46.942Z,7.55
2023-05-14T00:59:48.435Z,7.28
2023-05-14T01:02:50.013Z,8.03
2023-05-14T01:06:00.295Z,7.55
2023-05-14T01:09:22.305Z,8.27
2023-05-14T01:12:33.298Z,8.40
2023-05-14T01:15:36.957Z,8.10
2023-05-14T01:18:40.630Z,8.10
2023-05-14T01:21:43.606Z,7.65
2023-05-14T01:24:44.887Z,7.95
2023-05-14T01:27:52.737Z,7.13
2023-05-14T01:30:57.525Z,7.70
2023-05-14T01:34:00.376Z,7.10
2023-05-14T01:37:03.743Z,7.25
2023-05-14T01:40:07.727Z,7.22
2023-05-14T01:43:09.855Z,6.90
2023-05-14T01:46:11.287Z,7.07
2023-05-14T01:49:12.878Z,6.97
2023-05-14T01:52:14.839Z,6.80
2023-05-14T01:55:17.679Z,7.35
2023-05-14T01:58:19.287Z,7.50
2023-05-14T02:01:21.083Z,6.90
2023-05-14T02:04:22.612Z,7.50
2023-05-14T02:07:24.794Z,7.68
2023-05-14T02:10:26.314Z,7.80
2023-05-14T02:13:27.779Z,9.15
2023-05-14T02:16:29.114Z,9.68
2023-05-14T02:19:30.626Z,9.53
2023-05-14T02:22:32.698Z,9.52
2023-05-14T02:25:34.126Z,8.77
2023-05-14T02:28:35.581Z,7.82
2023-05-14T02:31:36.946Z,8.40
2023-05-14T02:34:38.482Z,8.50
2023-05-14T02:37:40.519Z,8.25
2023-05-14T02:40:41.970Z,9.07
2023-05-14T02:43:43.286Z,8.20
2023-05-14T02:46:44.993Z,7.65
2023-05-14T02:49:46.415Z,7.87
2023-05-14T02:52:48.370Z,7.32
2023-05-14T02:55:49.908Z,7.72
2023-05-14T02:58:51.270Z,7.20
2023-05-14T03:01:52.685Z,7.40
2023-05-14T03:04:54.898Z,6.80
2023-05-14T03:07:56.893Z,7.55
2023-05-14T03:10:58.337Z,7.03
2023-05-14T03:13:59.772Z,6.45
2023-05-14T03:17:01.219Z,6.65
2023-05-14T03:20:03.247Z,7.23
2023-05-14T03:23:05.425Z,6.35
2023-05-14T03:26:07.725Z,7.13
2023-05-14T03:29:09.994Z,6.97
2023-05-14T03:32:11.633Z,6.65
2023-05-14T03:35:13.026Z,6.30
2023-05-14T03:38:14.988Z,6.63
2023-05-14T03:41:17.885Z,6.47
2023-05-14T03:44:19.214Z,6.85
2023-05-14T03:47:20.504Z,7.28
2023-05-14T03:50:24.716Z,6.90
2023-05-14T03:53:26.799Z,6.95
2023-05-14T03:56:28.314Z,6.90
2023-05-14T03:59:29.711Z,7.10
2023-05-14T04:02:31.231Z,6.55
2023-05-14T04:05:32.765Z,6.87
2023-05-14T04:08:34.749Z,6.00
2023-05-14T04:11:36.463Z,6.18
2023-05-14T04:14:37.748Z,6.70
2023-05-14T04:17:39.073Z,7.03
2023-05-14T04:20:40.420Z,6.97
2023-05-14T04:23:42.359Z,6.70
2023-05-14T04:26:43.696Z,6.57
2023-05-14T04:29:44.988Z,6.53
2023-05-14T04:32:46.360Z,6.72
2023-05-14T04:35:47.879Z,7.20
2023-05-14T04:38:50.073Z,6.45
2023-05-14T04:41:51.550Z,6.00
2023-05-14T04:44:52.852Z,5.60
2023-05-14T04:47:54.209Z,6.38
2023-05-14T04:50:55.511Z,5.80
2023-05-14T04:53:57.649Z,6.22
2023-05-14T04:57:02.390Z,7.47
2023-05-14T05:00:05.381Z,6.15
2023-05-14T05:03:07.021Z,6.95
2023-05-14T05:06:08.369Z,6.77
2023-05-14T05:09:10.383Z,6.15
2023-05-14T05:12:11.719Z,6.28
2023-05-14T05:15:12.992Z,6.57
2023-05-14T05:18:14.280Z,6.32
2023-05-14T05:21:15.608Z,5.87
2023-05-14T05:24:17.686Z,6.25
2023-05-14T05:27:20.304Z,6.30
2023-05-14T05:30:21.772Z,5.85
2023-05-14T05:33:23.264Z,6.07
2023-05-14T05:36:24.755Z,5.77
2023-05-14T05:39:26.739Z,5.28
2023-05-14T05:42:28.068Z,6.25
2023-05-14T05:45:29.528Z,6.10
2023-05-14T05:48:30.952Z,6.07
2023-05-14T05:51:32.743Z,6.23
2023-05-14T05:54:34.731Z,5.93
2023-05-14T05:57:36.045Z,5.57
2023-05-14T06:00:38.572Z,5.97
2023-05-14T06:03:40.109Z,5.80
2023-05-14T06:06:41.667Z,6.07
2023-05-14T06:09:43.601Z,6.05
2023-05-14T06:12:45.054Z,6.05
2023-05-14T06:15:46.310Z,6.13
2023-05-14T06:18:47.637Z,6.57
2023-05-14T06:21:48.936Z,5.93
2023-05-14T06:24:50.893Z,5.85
2023-05-14T06:27:52.205Z,6.20
2023-05-14T06:30:53.655Z,5.38
2023-05-14T06:33:54.998Z,5.00
2023-05-14T06:36:56.779Z,5.50
2023-05-14T06:39:58.862Z,4.70
2023-05-14T06:43:00.572Z,4.38
2023-05-14T06:46:02.080Z,5.00
2023-05-14T06:49:03.510Z,4.95
2023-05-14T06:52:05.595Z,5.10
2023-05-14T06:55:08.404Z,5.50
2023-05-14T06:58:09.792Z,5.45
2023-05-14T07:01:11.195Z,6.03
2023-05-14T07:04:12.652Z,5.70
2023-05-14T07:07:17.435Z,4.90
2023-05-14T07:10:19.533Z,4.82
2023-05-14T07:13:20.824Z,5.68
2023-05-14T07:16:22.391Z,4.97
2023-05-14T07:19:23.643Z,5.45
2023-05-14T07:22:24.948Z,5.40
2023-05-14T07:25:26.904Z,5.20
2023-05-14T07:28:28.202Z,5.70
2023-05-14T07:31:29.555Z,5.72
2023-05-14T07:34:31.377Z,4.90
2023-05-14T07:37:32.687Z,5.23
2023-05-14T07:40:34.791Z,5.50
2023-05-14T07:43:37.712Z,5.60
2023-05-14T07:46:39.127Z,6.32
2023-05-14T07:49:40.750Z,5.22
2023-05-14T07:52:42.042Z,4.57
2023-05-14T07:55:46.279Z,4.93
2023-05-14T07:58:47.601Z,4.93
2023-05-14T08:01:48.922Z,5.00
2023-05-14T08:04:51.289Z,4.75
2023-05-14T08:07:52.572Z,4.60
2023-05-14T08:10:54.959Z,4.30
2023-05-14T08:13:56.507Z,4.55
2023-05-14T08:16:58.106Z,4.60
2023-05-14T08:19:59.814Z,4.70
2023-05-14T08:23:01.157Z,3.90
2023-05-14T08:26:03.165Z,4.30
2023-05-14T08:29:04.595Z,4.22
2023-05-14T08:32:15.944Z,3.70
2023-05-14T08:35:23.919Z,4.00
2023-05-14T08:38:25.261Z,4.07
2023-05-14T08:41:27.419Z,4.38
2023-05-14T08:44:33.874Z,4.30
2023-05-14T08:47:35.420Z,4.03
2023-05-14T08:50:37.084Z,4.30
2023-05-14T08:53:39.623Z,3.87
2023-05-14T08:56:43.439Z,4.25
2023-05-14T08:59:44.864Z,4.40
2023-05-14T09:02:47.545Z,3.97
2023-05-14T09:05:51.090Z,4.20
2023-05-14T09:08:52.912Z,4.23
2023-05-14T09:11:55.021Z,4.80
2023-05-14T09:14:56.357Z,4.30
2023-05-14T09:17:57.837Z,4.20
2023-05-14T09:20:59.236Z,4.28
2023-05-14T09:24:00.678Z,4.37
2023-05-14T09:27:03.715Z,4.10
2023-05-14T09:30:07.588Z,4.15
2023-05-14T09:33:09.638Z,4.10
2023-05-14T09:36:10.939Z,4.00
2023-05-14T09:39:12.198Z,4.03
2023-05-14T09:42:14.492Z,4.50
2023-05-14T09:45:16.029Z,4.28
2023-05-14T09:48:17.393Z,3.92
2023-05-14T09:51:19.100Z,3.88
2023-05-14T09:54:20.448Z,3.77
2023-05-14T09:57:23.754Z,3.92
2023-05-14T10:00:25.535Z,3.60
2023-05-14T10:03:29.658Z,3.33
2023-05-14T10:06:34.563Z,3.80
2023-05-14T10:09:41.057Z,3.90
2023-05-14T10:12:48.770Z,3.60
2023-05-14T10:15:57.189Z,3.35
2023-05-14T10:19:05.689Z,3.80
2023-05-14T10:22:10.418Z,3.50
2023-05-14T10:25:12.217Z,3.43
2023-05-14T10:28:14.376Z,3.75
2023-05-14T10:31:16.528Z,3.75
2023-05-14T10:34:40.763Z,3.80
2023-05-14T10:37:44.514Z,3.85
2023-05-14T10:40:47.304Z,3.50
2023-05-14T10:43:49.978Z,3.72
2023-05-14T10:46:52.116Z,4.00
2023-05-14T10:49:55.407Z,4.10
2023-05-14T10:52:57.142Z,4.25
2023-05-14T10:56:03.805Z,4.20
2023-05-14T10:59:07.619Z,3.90
2023-05-14T11:02:19.954Z,3.92
2023-05-14T11:05:21.438Z,4.05
2023-05-14T11:08:25.488Z,3.90
2023-05-14T11:11:28.031Z,4.00
2023-05-14T11:14:30.139Z,3.95
2023-05-14T11:17:32.223Z,3.80
2023-05-14T11:20:35.765Z,4.20
2023-05-14T11:23:37.225Z,4.10
2023-05-14T11:26:38.596Z,3.97
2023-05-14T11:29:43.680Z,4.20
2023-05-14T11:32:46.546Z,4.07
2023-05-14T11:35:48.085Z,4.05
2023-05-14T11:38:51.402Z,4.13
2023-05-14T11:41:52.802Z,3.93
2023-05-14T11:44:54.888Z,4.05
2023-05-14T11:47:56.232Z,4.35
2023-05-14T11:50:58.156Z,4.07
2023-05-14T11:53:59.436Z,4.55
2023-05-14T11:57:03.008Z,4.30
2023-05-14T12:00:08.392Z,4.00
2023-05-14T12:03:09.776Z,4.32
2023-05-14T12:06:11.285Z,4.13
2023-05-14T12:09:15.493Z,4.47
2023-05-14T12:12:19.397Z,4.20
2023-05-14T12:15:21.584Z,3.78
2023-05-14T12:18:25.307Z,3.95
2023-05-14T12:21:27.491Z,3.90
2023-05-14T12:24:29.057Z,4.25
2023-05-14T12:27:30.492Z,4.27
2023-05-14T12:30:37.698Z,4.32
2023-05-14T12:33:39.283Z,4.50
2023-05-14T12:36:40.651Z,4.60
2023-05-14T12:39:41.947Z,4.15
2023-05-14T12:42:43.506Z,4.10
2023-05-14T12:45:45.538Z,3.97
2023-05-14T12:48:46.928Z,4.90
2023-05-14T12:51:48.303Z,4.03
2023-05-14T12:54:49.562Z,4.22
2023-05-14T12:57:50.882Z,3.97
2023-05-14T13:00:52.938Z,4.45
2023-05-14T13:03:54.846Z,3.97
2023-05-14T13:06:56.395Z,4.07
2023-05-14T13:09:57.790Z,4.07
2023-05-14T13:12:59.154Z,4.03
2023-05-14T13:16:01.142Z,4.40
2023-05-14T13:19:02.705Z,4.47
2023-05-14T13:22:04.450Z,4.45
2023-05-14T13:25:06.995Z,4.00
2023-05-14T13:28:08.327Z,4.40
2023-05-14T13:31:11.483Z,4.60
2023-05-14T13:34:12.864Z,4.50
2023-05-14T13:37:14.257Z,4.28
2023-05-14T13:40:15.934Z,3.83
2023-05-14T13:43:17.215Z,4.57
2023-05-14T13:46:19.236Z,4.00
2023-05-14T13:49:20.542Z,4.10
2023-05-14T13:52:21.897Z,4.10
2023-05-14T13:55:23.497Z,3.90
2023-05-14T13:58:26.316Z,3.97
2023-05-14T14:01:29.950Z,3.50
2023-05-14T14:04:31.432Z,4.20
2023-05-14T14:07:32.805Z,4.03
2023-05-14T14:10:34.151Z,4.50
2023-05-14T14:13:36.353Z,3.73
2023-05-14T14:16:38.671Z,3.72
2023-05-14T14:19:40.214Z,3.60
2023-05-14T14:22:43.782Z,3.60
2023-05-14T14:25:45.034Z,3.40
2023-05-14T14:28:46.447Z,3.70
2023-05-14T14:31:48.687Z,3.60
2023-05-14T14:34:50.555Z,4.05
2023-05-14T14:37:53.024Z,3.75
2023-05-14T14:40:54.481Z,4.10
2023-05-14T14:43:56.069Z,4.10
2023-05-14T14:46:58.065Z,3.90
2023-05-14T14:49:59.394Z,3.92
2023-05-14T14:53:00.672Z,3.30
2023-05-14T14:56:02.288Z,3.60
2023-05-14T14:59:03.607Z,3.47
2023-05-14T15:02:06.014Z,3.83
2023-05-14T15:05:08.147Z,4.22
2023-05-14T15:08:09.677Z,3.70
2023-05-14T15:11:11.104Z,3.87
2023-05-14T15:14:12.826Z,4.00
2023-05-14T15:17:14.791Z,4.00
2023-05-14T15:20:16.352Z,4.38
2023-05-14T15:23:17.962Z,4.20
2023-05-14T15:26:19.264Z,4.30
2023-05-14T15:29:20.599Z,4.50
2023-05-14T15:32:22.714Z,4.30
2023-05-14T15:35:24.239Z,4.15
2023-05-14T15:38:25.815Z,4.13
2023-05-14T15:41:28.006Z,4.10
2023-05-14T15:44:29.481Z,3.93
2023-05-14T15:47:47.721Z,4.00
2023-05-14T15:50:49.787Z,4.22
2023-05-14T15:53:52.442Z,4.35
2023-05-14T15:56:55.213Z,3.92
2023-05-14T15:59:56.693Z,3.93
2023-05-14T16:02:58.812Z,4.60
2023-05-14T16:06:00.322Z,4.35
2023-05-14T16:09:02.384Z,4.13
2023-05-14T16:12:05.212Z,4.05
2023-05-14T16:15:07.644Z,4.10
2023-05-14T16:18:09.737Z,4.25
2023-05-14T16:21:11.224Z,4.22
2023-05-14T16:24:12.497Z,3.95
2023-05-14T16:27:13.951Z,4.20
2023-05-14T16:30:15.479Z,4.10
2023-05-14T16:33:17.424Z,4.13
2023-05-14T16:36:18.921Z,4.30
2023-05-14T16:39:20.231Z,4.10
2023-05-14T16:42:21.688Z,4.30
2023-05-14T16:45:23.302Z,4.33
2023-05-14T16:48:26.317Z,4.20
2023-05-14T16:51:27.669Z,4.35
2023-05-14T16:54:28.950Z,4.20
2023-05-14T16:57:30.425Z,4.40
2023-05-14T17:00:31.734Z,4.50
2023-05-14T17:03:33.881Z,4.20
2023-05-14T17:06:35.620Z,4.50
2023-05-14T17:09:37.390Z,4.32
2023-05-14T17:12:38.851Z,4.53
2023-05-14T17:15:41.649Z,4.50
2023-05-14T17:18:45.031Z,4.43
2023-05-14T17:21:46.460Z,4.65
2023-05-14T17:24:47.794Z,4.38
2023-05-14T17:27:49.293Z,4.63
2023-05-14T17:30:51.065Z,4.40
2023-05-14T17:33:53.162Z,4.63
2023-05-14T17:36:54.709Z,4.32
2023-05-14T17:39:56.122Z,4.40
2023-05-14T17:42:57.630Z,4.85
2023-05-14T17:45:58.993Z,4.63
2023-05-14T17:49:01.123Z,4.18
2023-05-14T17:52:02.582Z,4.53
2023-05-14T17:55:04.755Z,4.50
2023-05-14T17:58:06.048Z,4.77
2023-05-14T18:01:07.419Z,4.60
2023-05-14T18:04:09.982Z,4.70
2023-05-14T18:07:11.456Z,4.77
2023-05-14T18:10:13.137Z,4.47
2023-05-14T18:13:14.662Z,4.47
2023-05-14T18:16:16.009Z,4.60
2023-05-14T18:19:18.433Z,4.63
2023-05-14T18:22:20.773Z,4.40
2023-05-14T18:25:22.426Z,4.40
2023-05-14T18:28:24.103Z,4.65
2023-05-14T18:31:26.941Z,4.22
2023-05-14T18:34:28.953Z,4.75
2023-05-14T18:37:32.091Z,4.20
2023-05-14T18:40:33.675Z,4.57
2023-05-14T18:43:34.999Z,4.57
2023-05-14T18:46:36.404Z,4.38
2023-05-14T18:49:39.526Z,4.93
2023-05-14T18:52:40.897Z,4.77
2023-05-14T18:55:42.359Z,4.70
2023-05-14T18:58:43.785Z,4.90
2023-05-14T19:01:45.226Z,5.28
2023-05-14T19:04:52.784Z,4.80
2023-05-14T19:07:54.621Z,4.63
2023-05-14T19:10:56.057Z,4.97
2023-05-14T19:13:57.490Z,4.80
2023-05-14T19:16:58.921Z,4.57
2023-05-14T19:20:01.022Z,4.57
2023-05-14T19:23:02.324Z,4.43
2023-05-14T19:26:04.221Z,4.90
2023-05-14T19:29:05.483Z,4.85
2023-05-14T19:32:07.746Z,5.10
2023-05-14T19:35:10.826Z,5.07
2023-05-14T19:38:12.809Z,4.70
2023-05-14T19:41:14.683Z,4.70
2023-05-14T19:44:16.092Z,5.10
2023-05-14T19:47:17.676Z,4.80
2023-05-14T19:50:19.908Z,5.07
2023-05-14T19:53:21.208Z,4.90
2023-05-14T19:56:23.155Z,5.13
2023-05-14T19:59:25.313Z,5.35
2023-05-14T20:02:26.776Z,4.85
2023-05-14T20:05:29.076Z,5.10
2023-05-14T20:08:30.341Z,4.80
2023-05-14T20:11:31.809Z,4.93
2023-05-14T20:14:33.242Z,5.00
2023-05-14T20:17:34.663Z,5.20
2023-05-14T20:20:36.869Z,5.82
2023-05-14T20:23:38.193Z,5.60
2023-05-14T20:26:39.609Z,5.43
2023-05-14T20:29:40.874Z,5.82
2023-05-14T20:32:42.439Z,5.85
2023-05-14T20:35:44.557Z,5.55
2023-05-14T20:38:46.955Z,5.67
2023-05-14T20:41:48.362Z,5.40
2023-05-14T20:44:49.874Z,6.20
2023-05-14T20:47:51.622Z,6.82
2023-05-14T20:50:53.732Z,6.05
2023-05-14T20:53:55.026Z,6.53
2023-05-14T20:56:56.449Z,5.90
2023-05-14T20:59:57.720Z,5.65
2023-05-14T21:02:59.525Z,6.10
2023-05-14T21:06:02.577Z,5.88
2023-05-14T21:09:04.019Z,5.90
2023-05-14T21:12:06.215Z,5.72
2023-05-14T21:15:08.909Z,6.10
2023-05-14T21:18:10.898Z,5.95
2023-05-14T21:21:13.100Z,5.97
2023-05-14T21:24:15.918Z,6.23
2023-05-14T21:27:17.402Z,6.10
2023-05-14T21:30:18.738Z,5.53
2023-05-14T21:33:20.134Z,6.00
2023-05-14T21:36:22.361Z,6.20
2023-05-14T21:39:23.704Z,6.03
2023-05-14T21:42:25.225Z,6.20
2023-05-14T21:45:26.800Z,6.38
2023-05-14T21:48:28.649Z,6.80
2023-05-14T21:51:31.480Z,7.10
2023-05-14T21:54:32.787Z,6.90
2023-05-14T21:57:34.738Z,6.35
2023-05-14T22:00:36.085Z,6.53
2023-05-14T22:03:37.773Z,6.25
2023-05-14T22:06:39.930Z,7.03
2023-05-14T22:09:41.260Z,6.67
2023-05-14T22:12:43.722Z,6.93
2023-05-14T22:15:45.102Z,7.13
2023-05-14T22:18:46.549Z,6.80
2023-05-14T22:21:48.745Z,7.25
2023-05-14T22:24:50.011Z,7.50
2023-05-14T22:27:53.273Z,7.00
2023-05-14T22:30:55.638Z,7.18
2023-05-14T22:33:57.021Z,7.90
2023-05-14T22:36:59.674Z,6.90
2023-05-14T22:40:01.434Z,7.18
2023-05-14T22:43:02.949Z,7.57
2023-05-14T22:46:04.429Z,7.43
2023-05-14T22:49:05.865Z,7.45
2023-05-14T22:52:08.830Z,7.47
2023-05-14T22:55:10.711Z,7.88
2023-05-14T22:58:12.106Z,8.07
2023-05-14T23:01:13.380Z,8.02
2023-05-14T23:04:14.855Z,8.35
2023-05-14T23:07:16.843Z,7.90
2023-05-14T23:10:18.340Z,7.60
2023-05-14T23:13:19.835Z,7.72
2023-05-14T23:16:21.179Z,7.82
2023-05-14T23:19:22.710Z,8.10
2023-05-14T23:22:24.728Z,8.07
2023-05-14T23:25:26.389Z,7.82
2023-05-14T23:28:27.929Z,8.13
2023-05-14T23:31:29.204Z,7.93
2023-05-14T23:34:30.802Z,7.65
2023-05-14T23:37:33.170Z,7.87
2023-05-14T23:40:34.642Z,7.85
2023-05-14T23:43:36.064Z,8.30
2023-05-14T23:46:37.421Z,7.85
2023-05-14T23:49:40.137Z,8.07
2023-05-14T23:52:42.109Z,7.53
2023-05-14T23:55:43.653Z,7.95
2023-05-14T23:58:45.079Z,7.78
